sensor_id;sensor_type;location;lat;lon;timestamp;P1;durP1;ratioP1;P2;durP2;ratioP2
58242;SDS011;50118;53.232;8.252;2023-06-24T00:02:15;12.93;;;10.68;;
58242;SDS011;50118;53.232;8.252;2023-06-24T00:04:40;12.75;;;10.63;;
58242;SDS011;50118;53.232;8.252;2023-06-24T00:07:06;12.52;;;10.45;;
58242;SDS011;50118;53.232;8.252;2023-06-24T00:09:31;12.98;;;10.63;;
58242;SDS011;50118;53.232;8.252;2023-06-24T00:11:57;12.25;;;10.52;;
58242;SDS011;50118;53.232;8.252;2023-06-24T00:14:26;12.95;;;10.60;;
58242;SDS011;50118;53.232;8.252;2023-06-24T00:16:52;12.90;;;10.45;;
58242;SDS011;50118;53.232;8.252;2023-06-24T00:19:22;13.30;;;11.07;;
58242;SDS011;50118;53.232;8.252;2023-06-24T00:21:49;14.88;;;11.00;;
58242;SDS011;50118;53.232;8.252;2023-06-24T00:24:18;13.35;;;10.63;;
58242;SDS011;50118;53.232;8.252;2023-06-24T00:26:45;14.27;;;11.73;;
58242;SDS011;50118;53.232;8.252;2023-06-24T00:29:11;14.90;;;11.98;;
58242;SDS011;50118;53.232;8.252;2023-06-24T00:31:37;12.27;;;10.73;;
58242;SDS011;50118;53.232;8.252;2023-06-24T00:34:03;14.13;;;11.48;;
58242;SDS011;50118;53.232;8.252;2023-06-24T00:36:29;15.00;;;11.48;;
58242;SDS011;50118;53.232;8.252;2023-06-24T00:38:57;15.00;;;11.95;;
58242;SDS011;50118;53.232;8.252;2023-06-24T00:41:26;13.55;;;11.05;;
58242;SDS011;50118;53.232;8.252;2023-06-24T00:43:52;14.20;;;11.50;;
58242;SDS011;50118;53.232;8.252;2023-06-24T00:46:18;16.55;;;12.27;;
58242;SDS011;50118;53.232;8.252;2023-06-24T00:48:44;14.85;;;12.00;;
58242;SDS011;50118;53.232;8.252;2023-06-24T00:51:10;13.98;;;11.60;;
58242;SDS011;50118;53.232;8.252;2023-06-24T00:53:36;16.40;;;12.05;;
58242;SDS011;50118;53.232;8.252;2023-06-24T00:56:01;18.17;;;13.00;;
58242;SDS011;50118;53.232;8.252;2023-06-24T00:58:29;15.45;;;12.50;;
58242;SDS011;50118;53.232;8.252;2023-06-24T01:00:57;13.98;;;11.90;;
58242;SDS011;50118;53.232;8.252;2023-06-24T01:03:24;15.05;;;12.27;;
58242;SDS011;50118;53.232;8.252;2023-06-24T01:05:50;17.20;;;12.63;;
58242;SDS011;50118;53.232;8.252;2023-06-24T01:08:17;15.25;;;12.30;;
58242;SDS011;50118;53.232;8.252;2023-06-24T01:10:44;16.10;;;11.43;;
58242;SDS011;50118;53.232;8.252;2023-06-24T01:13:09;14.55;;;11.73;;
58242;SDS011;50118;53.232;8.252;2023-06-24T01:15:35;15.02;;;11.82;;
58242;SDS011;50118;53.232;8.252;2023-06-24T01:18:19;16.73;;;12.70;;
58242;SDS011;50118;53.232;8.252;2023-06-24T01:29:34;15.90;;;12.30;;
58242;SDS011;50118;53.232;8.252;2023-06-24T01:34:59;15.38;;;11.38;;
58242;SDS011;50118;53.232;8.252;2023-06-24T01:37:29;16.23;;;12.15;;
58242;SDS011;50118;53.232;8.252;2023-06-24T01:40:18;13.63;;;11.10;;
58242;SDS011;50118;53.232;8.252;2023-06-24T01:42:50;14.85;;;12.35;;
58242;SDS011;50118;53.232;8.252;2023-06-24T01:45:16;15.30;;;11.70;;
58242;SDS011;50118;53.232;8.252;2023-06-24T01:47:47;16.85;;;12.57;;
58242;SDS011;50118;53.232;8.252;2023-06-24T01:50:14;17.52;;;12.50;;
58242;SDS011;50118;53.232;8.252;2023-06-24T01:52:44;14.73;;;11.68;;
58242;SDS011;50118;53.232;8.252;2023-06-24T01:55:11;15.98;;;12.10;;
58242;SDS011;50118;53.232;8.252;2023-06-24T01:57:41;15.85;;;12.57;;
58242;SDS011;50118;53.232;8.252;2023-06-24T02:00:09;16.67;;;12.68;;
58242;SDS011;50118;53.232;8.252;2023-06-24T02:02:36;15.82;;;12.80;;
58242;SDS011;50118;53.232;8.252;2023-06-24T02:05:03;15.82;;;12.07;;
58242;SDS011;50118;53.232;8.252;2023-06-24T02:07:31;14.30;;;12.13;;
58242;SDS011;50118;53.232;8.252;2023-06-24T02:09:58;13.30;;;11.63;;
58242;SDS011;50118;53.232;8.252;2023-06-24T02:12:25;14.90;;;11.68;;
58242;SDS011;50118;53.232;8.252;2023-06-24T02:14:53;14.77;;;11.65;;
58242;SDS011;50118;53.232;8.252;2023-06-24T02:17:23;14.95;;;11.75;;
58242;SDS011;50118;53.232;8.252;2023-06-24T02:19:49;16.75;;;12.38;;
58242;SDS011;50118;53.232;8.252;2023-06-24T02:22:17;14.50;;;11.98;;
58242;SDS011;50118;53.232;8.252;2023-06-24T02:24:43;16.13;;;11.77;;
58242;SDS011;50118;53.232;8.252;2023-06-24T02:27:10;19.48;;;13.10;;
58242;SDS011;50118;53.232;8.252;2023-06-24T02:29:37;14.80;;;11.85;;
58242;SDS011;50118;53.232;8.252;2023-06-24T02:32:04;15.25;;;12.07;;
58242;SDS011;50118;53.232;8.252;2023-06-24T02:34:31;14.32;;;11.45;;
58242;SDS011;50118;53.232;8.252;2023-06-24T02:36:57;14.85;;;11.57;;
58242;SDS011;50118;53.232;8.252;2023-06-24T02:39:22;13.52;;;10.95;;
58242;SDS011;50118;53.232;8.252;2023-06-24T02:41:48;14.77;;;12.02;;
58242;SDS011;50118;53.232;8.252;2023-06-24T02:44:14;15.70;;;11.77;;
58242;SDS011;50118;53.232;8.252;2023-06-24T02:46:40;17.17;;;12.30;;
58242;SDS011;50118;53.232;8.252;2023-06-24T02:49:09;16.70;;;12.38;;
58242;SDS011;50118;53.232;8.252;2023-06-24T02:51:35;15.70;;;12.18;;
58242;SDS011;50118;53.232;8.252;2023-06-24T02:54:03;18.58;;;13.82;;
58242;SDS011;50118;53.232;8.252;2023-06-24T02:56:30;16.38;;;13.27;;
58242;SDS011;50118;53.232;8.252;2023-06-24T02:58:56;16.40;;;13.00;;
58242;SDS011;50118;53.232;8.252;2023-06-24T03:01:22;17.58;;;13.30;;
58242;SDS011;50118;53.232;8.252;2023-06-24T03:03:58;17.17;;;13.60;;
58242;SDS011;50118;53.232;8.252;2023-06-24T03:06:23;15.73;;;12.30;;
58242;SDS011;50118;53.232;8.252;2023-06-24T03:08:52;16.83;;;12.63;;
58242;SDS011;50118;53.232;8.252;2023-06-24T03:11:17;16.27;;;13.02;;
58242;SDS011;50118;53.232;8.252;2023-06-24T03:13:43;15.80;;;11.32;;
58242;SDS011;50118;53.232;8.252;2023-06-24T03:16:09;14.95;;;12.45;;
58242;SDS011;50118;53.232;8.252;2023-06-24T03:18:43;15.55;;;11.48;;
58242;SDS011;50118;53.232;8.252;2023-06-24T03:21:09;16.50;;;12.30;;
58242;SDS011;50118;53.232;8.252;2023-06-24T03:23:35;15.60;;;12.52;;
58242;SDS011;50118;53.232;8.252;2023-06-24T03:26:01;13.63;;;11.10;;
58242;SDS011;50118;53.232;8.252;2023-06-24T03:28:29;15.73;;;12.15;;
58242;SDS011;50118;53.232;8.252;2023-06-24T03:30:57;14.00;;;11.70;;
58242;SDS011;50118;53.232;8.252;2023-06-24T03:33:23;16.15;;;13.07;;
58242;SDS011;50118;53.232;8.252;2023-06-24T03:35:49;16.27;;;13.13;;
58242;SDS011;50118;53.232;8.252;2023-06-24T03:38:15;17.98;;;12.60;;
58242;SDS011;50118;53.232;8.252;2023-06-24T03:40:41;15.63;;;12.23;;
58242;SDS011;50118;53.232;8.252;2023-06-24T03:43:06;14.90;;;11.90;;
58242;SDS011;50118;53.232;8.252;2023-06-24T03:45:32;17.23;;;13.40;;
58242;SDS011;50118;53.232;8.252;2023-06-24T03:47:57;14.63;;;12.35;;
58242;SDS011;50118;53.232;8.252;2023-06-24T03:50:22;16.63;;;12.48;;
58242;SDS011;50118;53.232;8.252;2023-06-24T03:52:48;16.13;;;12.45;;
58242;SDS011;50118;53.232;8.252;2023-06-24T03:55:13;19.30;;;13.52;;
58242;SDS011;50118;53.232;8.252;2023-06-24T03:57:39;19.00;;;13.85;;
58242;SDS011;50118;53.232;8.252;2023-06-24T04:00:05;17.90;;;12.45;;
58242;SDS011;50118;53.232;8.252;2023-06-24T04:02:44;16.90;;;13.05;;
58242;SDS011;50118;53.232;8.252;2023-06-24T04:05:10;19.17;;;13.35;;
58242;SDS011;50118;53.232;8.252;2023-06-24T04:07:36;17.17;;;13.40;;
58242;SDS011;50118;53.232;8.252;2023-06-24T04:10:04;18.02;;;12.60;;
58242;SDS011;50118;53.232;8.252;2023-06-24T04:15:02;16.27;;;12.10;;
58242;SDS011;50118;53.232;8.252;2023-06-24T04:17:29;20.90;;;14.02;;
58242;SDS011;50118;53.232;8.252;2023-06-24T04:19:54;19.45;;;12.90;;
58242;SDS011;50118;53.232;8.252;2023-06-24T04:22:20;15.32;;;12.52;;
58242;SDS011;50118;53.232;8.252;2023-06-24T04:24:45;14.07;;;10.88;;
58242;SDS011;50118;53.232;8.252;2023-06-24T04:27:11;14.52;;;10.80;;
58242;SDS011;50118;53.232;8.252;2023-06-24T04:29:37;12.98;;;9.88;;
58242;SDS011;50118;53.232;8.252;2023-06-24T04:32:02;11.85;;;8.90;;
58242;SDS011;50118;53.232;8.252;2023-06-24T04:34:28;9.85;;;7.90;;
58242;SDS011;50118;53.232;8.252;2023-06-24T04:36:53;11.38;;;9.00;;
58242;SDS011;50118;53.232;8.252;2023-06-24T04:39:19;12.18;;;9.85;;
58242;SDS011;50118;53.232;8.252;2023-06-24T04:41:44;12.68;;;8.98;;
58242;SDS011;50118;53.232;8.252;2023-06-24T04:44:11;14.68;;;9.40;;
58242;SDS011;50118;53.232;8.252;2023-06-24T04:46:36;10.13;;;8.32;;
58242;SDS011;50118;53.232;8.252;2023-06-24T04:49:02;11.30;;;9.05;;
58242;SDS011;50118;53.232;8.252;2023-06-24T04:51:28;10.38;;;7.00;;
58242;SDS011;50118;53.232;8.252;2023-06-24T04:53:53;9.07;;;7.85;;
58242;SDS011;50118;53.232;8.252;2023-06-24T04:56:20;9.23;;;7.05;;
58242;SDS011;50118;53.232;8.252;2023-06-24T04:58:46;10.45;;;8.25;;
58242;SDS011;50118;53.232;8.252;2023-06-24T05:01:11;7.10;;;6.40;;
58242;SDS011;50118;53.232;8.252;2023-06-24T05:03:36;9.82;;;7.75;;
58242;SDS011;50118;53.232;8.252;2023-06-24T05:06:02;10.13;;;7.63;;
58242;SDS011;50118;53.232;8.252;2023-06-24T05:08:27;12.35;;;8.75;;
58242;SDS011;50118;53.232;8.252;2023-06-24T05:10:53;11.93;;;8.82;;
58242;SDS011;50118;53.232;8.252;2023-06-24T05:13:18;9.70;;;7.45;;
58242;SDS011;50118;53.232;8.252;2023-06-24T05:15:44;9.38;;;7.78;;
58242;SDS011;50118;53.232;8.252;2023-06-24T05:18:09;10.85;;;8.05;;
58242;SDS011;50118;53.232;8.252;2023-06-24T05:20:35;10.13;;;8.40;;
58242;SDS011;50118;53.232;8.252;2023-06-24T05:23:00;10.10;;;7.28;;
58242;SDS011;50118;53.232;8.252;2023-06-24T05:25:25;10.68;;;8.23;;
58242;SDS011;50118;53.232;8.252;2023-06-24T05:27:51;10.07;;;7.13;;
58242;SDS011;50118;53.232;8.252;2023-06-24T05:30:16;10.77;;;8.13;;
58242;SDS011;50118;53.232;8.252;2023-06-24T05:32:42;10.75;;;8.27;;
58242;SDS011;50118;53.232;8.252;2023-06-24T05:35:07;10.82;;;8.02;;
58242;SDS011;50118;53.232;8.252;2023-06-24T05:37:33;8.90;;;7.00;;
58242;SDS011;50118;53.232;8.252;2023-06-24T05:39:59;11.25;;;8.38;;
58242;SDS011;50118;53.232;8.252;2023-06-24T05:42:26;10.35;;;8.30;;
58242;SDS011;50118;53.232;8.252;2023-06-24T05:44:52;10.35;;;7.80;;
58242;SDS011;50118;53.232;8.252;2023-06-24T05:47:17;10.45;;;7.07;;
58242;SDS011;50118;53.232;8.252;2023-06-24T05:49:42;10.88;;;7.93;;
58242;SDS011;50118;53.232;8.252;2023-06-24T05:52:08;8.85;;;7.07;;
58242;SDS011;50118;53.232;8.252;2023-06-24T05:54:33;9.68;;;7.28;;
58242;SDS011;50118;53.232;8.252;2023-06-24T05:56:59;8.35;;;7.18;;
58242;SDS011;50118;53.232;8.252;2023-06-24T05:59:24;8.88;;;7.05;;
58242;SDS011;50118;53.232;8.252;2023-06-24T06:01:50;10.23;;;7.40;;
58242;SDS011;50118;53.232;8.252;2023-06-24T06:04:15;9.30;;;7.03;;
58242;SDS011;50118;53.232;8.252;2023-06-24T06:06:40;8.88;;;6.93;;
58242;SDS011;50118;53.232;8.252;2023-06-24T06:09:06;9.23;;;7.13;;
58242;SDS011;50118;53.232;8.252;2023-06-24T06:11:31;9.02;;;5.47;;
58242;SDS011;50118;53.232;8.252;2023-06-24T06:13:57;8.07;;;5.55;;
58242;SDS011;50118;53.232;8.252;2023-06-24T06:16:22;6.57;;;5.63;;
58242;SDS011;50118;53.232;8.252;2023-06-24T06:18:48;8.85;;;5.63;;
58242;SDS011;50118;53.232;8.252;2023-06-24T06:21:14;7.35;;;5.63;;
58242;SDS011;50118;53.232;8.252;2023-06-24T06:23:39;7.45;;;5.03;;
58242;SDS011;50118;53.232;8.252;2023-06-24T06:26:05;6.35;;;4.63;;
58242;SDS011;50118;53.232;8.252;2023-06-24T06:28:30;7.25;;;5.10;;
58242;SDS011;50118;53.232;8.252;2023-06-24T06:30:56;6.28;;;5.28;;
58242;SDS011;50118;53.232;8.252;2023-06-24T06:33:24;7.78;;;5.07;;
58242;SDS011;50118;53.232;8.252;2023-06-24T06:35:49;6.60;;;4.57;;
58242;SDS011;50118;53.232;8.252;2023-06-24T06:38:15;5.60;;;4.30;;
58242;SDS011;50118;53.232;8.252;2023-06-24T06:40:40;5.55;;;4.00;;
58242;SDS011;50118;53.232;8.252;2023-06-24T06:43:05;6.63;;;4.20;;
58242;SDS011;50118;53.232;8.252;2023-06-24T06:45:31;5.85;;;3.97;;
58242;SDS011;50118;53.232;8.252;2023-06-24T06:47:56;6.30;;;4.47;;
58242;SDS011;50118;53.232;8.252;2023-06-24T06:50:22;7.55;;;3.83;;
58242;SDS011;50118;53.232;8.252;2023-06-24T06:52:47;5.72;;;3.90;;
58242;SDS011;50118;53.232;8.252;2023-06-24T06:55:13;5.55;;;3.47;;
58242;SDS011;50118;53.232;8.252;2023-06-24T06:57:38;3.95;;;3.45;;
58242;SDS011;50118;53.232;8.252;2023-06-24T07:00:04;4.95;;;3.55;;
58242;SDS011;50118;53.232;8.252;2023-06-24T07:02:30;5.82;;;3.97;;
58242;SDS011;50118;53.232;8.252;2023-06-24T07:04:55;6.15;;;4.20;;
58242;SDS011;50118;53.232;8.252;2023-06-24T07:07:21;4.60;;;3.33;;
58242;SDS011;50118;53.232;8.252;2023-06-24T07:09:46;5.03;;;3.40;;
58242;SDS011;50118;53.232;8.252;2023-06-24T07:12:13;5.57;;;3.50;;
58242;SDS011;50118;53.232;8.252;2023-06-24T07:14:38;6.95;;;3.78;;
58242;SDS011;50118;53.232;8.252;2023-06-24T07:17:04;4.30;;;3.13;;
58242;SDS011;50118;53.232;8.252;2023-06-24T07:19:30;6.47;;;3.50;;
58242;SDS011;50118;53.232;8.252;2023-06-24T07:21:55;4.97;;;3.50;;
58242;SDS011;50118;53.232;8.252;2023-06-24T07:24:21;5.22;;;3.13;;
58242;SDS011;50118;53.232;8.252;2023-06-24T07:26:46;6.10;;;3.20;;
58242;SDS011;50118;53.232;8.252;2023-06-24T07:29:11;4.68;;;3.10;;
58242;SDS011;50118;53.232;8.252;2023-06-24T07:31:37;4.85;;;3.10;;
58242;SDS011;50118;53.232;8.252;2023-06-24T07:34:02;5.07;;;3.53;;
58242;SDS011;50118;53.232;8.252;2023-06-24T07:36:28;5.18;;;3.38;;
58242;SDS011;50118;53.232;8.252;2023-06-24T07:38:53;5.50;;;3.67;;
58242;SDS011;50118;53.232;8.252;2023-06-24T07:41:19;5.63;;;3.83;;
58242;SDS011;50118;53.232;8.252;2023-06-24T07:43:44;4.35;;;3.45;;
58242;SDS011;50118;53.232;8.252;2023-06-24T07:46:09;4.60;;;3.45;;
58242;SDS011;50118;53.232;8.252;2023-06-24T07:48:35;6.60;;;3.72;;
58242;SDS011;50118;53.232;8.252;2023-06-24T07:51:00;6.28;;;3.70;;
58242;SDS011;50118;53.232;8.252;2023-06-24T07:53:26;5.55;;;3.70;;
58242;SDS011;50118;53.232;8.252;2023-06-24T07:55:51;5.50;;;3.40;;
58242;SDS011;50118;53.232;8.252;2023-06-24T07:58:17;7.47;;;3.90;;
58242;SDS011;50118;53.232;8.252;2023-06-24T08:00:44;6.85;;;3.67;;
58242;SDS011;50118;53.232;8.252;2023-06-24T08:03:10;5.65;;;3.85;;
58242;SDS011;50118;53.232;8.252;2023-06-24T08:05:36;4.70;;;3.67;;
58242;SDS011;50118;53.232;8.252;2023-06-24T08:08:03;6.75;;;4.15;;
58242;SDS011;50118;53.232;8.252;2023-06-24T08:10:29;5.55;;;3.47;;
58242;SDS011;50118;53.232;8.252;2023-06-24T08:12:55;5.18;;;3.80;;
58242;SDS011;50118;53.232;8.252;2023-06-24T08:15:20;6.10;;;3.63;;
58242;SDS011;50118;53.232;8.252;2023-06-24T08:17:50;5.68;;;3.88;;
58242;SDS011;50118;53.232;8.252;2023-06-24T08:20:22;4.93;;;3.58;;
58242;SDS011;50118;53.232;8.252;2023-06-24T08:22:48;6.35;;;4.00;;
58242;SDS011;50118;53.232;8.252;2023-06-24T08:25:14;6.70;;;3.80;;
58242;SDS011;50118;53.232;8.252;2023-06-24T08:27:39;5.28;;;3.85;;
58242;SDS011;50118;53.232;8.252;2023-06-24T08:30:05;6.57;;;4.07;;
58242;SDS011;50118;53.232;8.252;2023-06-24T08:32:32;5.93;;;3.85;;
58242;SDS011;50118;53.232;8.252;2023-06-24T08:34:57;6.03;;;4.13;;
58242;SDS011;50118;53.232;8.252;2023-06-24T08:37:23;5.68;;;3.80;;
58242;SDS011;50118;53.232;8.252;2023-06-24T08:39:48;5.07;;;3.65;;
58242;SDS011;50118;53.232;8.252;2023-06-24T08:42:13;6.05;;;4.00;;
58242;SDS011;50118;53.232;8.252;2023-06-24T08:44:39;6.53;;;4.15;;
58242;SDS011;50118;53.232;8.252;2023-06-24T08:47:04;5.13;;;3.55;;
58242;SDS011;50118;53.232;8.252;2023-06-24T08:49:30;6.35;;;3.83;;
58242;SDS011;50118;53.232;8.252;2023-06-24T08:52:05;6.53;;;4.22;;
58242;SDS011;50118;53.232;8.252;2023-06-24T08:54:36;6.60;;;4.00;;
58242;SDS011;50118;53.232;8.252;2023-06-24T08:57:03;6.45;;;4.10;;
58242;SDS011;50118;53.232;8.252;2023-06-24T08:59:33;7.22;;;3.92;;
58242;SDS011;50118;53.232;8.252;2023-06-24T09:02:00;5.45;;;3.72;;
58242;SDS011;50118;53.232;8.252;2023-06-24T09:04:25;5.03;;;3.38;;
58242;SDS011;50118;53.232;8.252;2023-06-24T09:06:51;5.68;;;3.97;;
58242;SDS011;50118;53.232;8.252;2023-06-24T09:09:19;6.07;;;4.07;;
58242;SDS011;50118;53.232;8.252;2023-06-24T09:11:55;5.18;;;3.80;;
58242;SDS011;50118;53.232;8.252;2023-06-24T09:14:23;6.88;;;4.78;;
58242;SDS011;50118;53.232;8.252;2023-06-24T09:16:54;6.43;;;4.20;;
58242;SDS011;50118;53.232;8.252;2023-06-24T09:21:53;7.88;;;4.93;;
58242;SDS011;50118;53.232;8.252;2023-06-24T09:24:19;6.75;;;4.70;;
58242;SDS011;50118;53.232;8.252;2023-06-24T09:26:44;5.75;;;4.53;;
58242;SDS011;50118;53.232;8.252;2023-06-24T09:29:10;6.68;;;5.05;;
58242;SDS011;50118;53.232;8.252;2023-06-24T09:31:45;7.53;;;4.72;;
58242;SDS011;50118;53.232;8.252;2023-06-24T09:34:14;6.80;;;4.72;;
58242;SDS011;50118;53.232;8.252;2023-06-24T09:36:44;6.60;;;4.90;;
58242;SDS011;50118;53.232;8.252;2023-06-24T09:39:10;7.85;;;4.97;;
58242;SDS011;50118;53.232;8.252;2023-06-24T09:41:36;7.53;;;5.30;;
58242;SDS011;50118;53.232;8.252;2023-06-24T09:44:07;6.57;;;5.00;;
58242;SDS011;50118;53.232;8.252;2023-06-24T09:46:37;8.68;;;5.25;;
58242;SDS011;50118;53.232;8.252;2023-06-24T09:49:04;7.35;;;5.18;;
58242;SDS011;50118;53.232;8.252;2023-06-24T09:51:31;6.85;;;5.22;;
58242;SDS011;50118;53.232;8.252;2023-06-24T09:54:01;6.93;;;5.65;;
58242;SDS011;50118;53.232;8.252;2023-06-24T09:56:27;6.20;;;5.20;;
58242;SDS011;50118;53.232;8.252;2023-06-24T09:58:53;5.13;;;3.58;;
58242;SDS011;50118;53.232;8.252;2023-06-24T10:01:19;6.10;;;4.70;;
58242;SDS011;50118;53.232;8.252;2023-06-24T10:03:45;6.47;;;4.68;;
58242;SDS011;50118;53.232;8.252;2023-06-24T10:06:10;8.35;;;4.82;;
58242;SDS011;50118;53.232;8.252;2023-06-24T10:08:36;7.05;;;4.50;;
58242;SDS011;50118;53.232;8.252;2023-06-24T10:11:01;6.47;;;4.45;;
58242;SDS011;50118;53.232;8.252;2023-06-24T10:13:27;6.93;;;5.10;;
58242;SDS011;50118;53.232;8.252;2023-06-24T10:15:54;6.85;;;5.47;;
58242;SDS011;50118;53.232;8.252;2023-06-24T10:20:55;6.93;;;5.00;;
58242;SDS011;50118;53.232;8.252;2023-06-24T10:23:21;7.65;;;4.47;;
58242;SDS011;50118;53.232;8.252;2023-06-24T10:25:46;6.18;;;4.47;;
58242;SDS011;50118;53.232;8.252;2023-06-24T10:28:12;6.45;;;4.00;;
58242;SDS011;50118;53.232;8.252;2023-06-24T10:30:38;5.22;;;4.28;;
58242;SDS011;50118;53.232;8.252;2023-06-24T10:33:03;7.25;;;4.68;;
58242;SDS011;50118;53.232;8.252;2023-06-24T10:35:29;6.20;;;4.20;;
58242;SDS011;50118;53.232;8.252;2023-06-24T10:38:00;6.33;;;4.73;;
58242;SDS011;50118;53.232;8.252;2023-06-24T10:40:35;6.22;;;5.20;;
58242;SDS011;50118;53.232;8.252;2023-06-24T10:43:12;6.55;;;4.88;;
58242;SDS011;50118;53.232;8.252;2023-06-24T10:45:53;6.35;;;4.57;;
58242;SDS011;50118;53.232;8.252;2023-06-24T10:48:20;5.13;;;4.05;;
58242;SDS011;50118;53.232;8.252;2023-06-24T10:50:46;7.85;;;5.18;;
58242;SDS011;50118;53.232;8.252;2023-06-24T10:53:15;5.80;;;4.30;;
58242;SDS011;50118;53.232;8.252;2023-06-24T10:55:43;6.28;;;5.05;;
58242;SDS011;50118;53.232;8.252;2023-06-24T10:58:11;6.22;;;4.63;;
58242;SDS011;50118;53.232;8.252;2023-06-24T11:00:41;6.53;;;4.82;;
58242;SDS011;50118;53.232;8.252;2023-06-24T11:03:12;7.35;;;5.10;;
58242;SDS011;50118;53.232;8.252;2023-06-24T11:05:43;6.03;;;4.40;;
58242;SDS011;50118;53.232;8.252;2023-06-24T11:08:10;5.38;;;4.50;;
58242;SDS011;50118;53.232;8.252;2023-06-24T11:10:45;5.65;;;4.68;;
58242;SDS011;50118;53.232;8.252;2023-06-24T11:13:11;6.63;;;4.65;;
58242;SDS011;50118;53.232;8.252;2023-06-24T11:15:38;5.68;;;4.28;;
58242;SDS011;50118;53.232;8.252;2023-06-24T11:18:05;5.80;;;4.75;;
58242;SDS011;50118;53.232;8.252;2023-06-24T11:20:33;9.57;;;8.60;;
58242;SDS011;50118;53.232;8.252;2023-06-24T11:22:58;7.00;;;5.28;;
58242;SDS011;50118;53.232;8.252;2023-06-24T11:25:24;7.82;;;5.30;;
58242;SDS011;50118;53.232;8.252;2023-06-24T11:27:49;6.93;;;4.97;;
58242;SDS011;50118;53.232;8.252;2023-06-24T11:30:17;6.13;;;4.47;;
58242;SDS011;50118;53.232;8.252;2023-06-24T11:32:43;6.07;;;5.15;;
58242;SDS011;50118;53.232;8.252;2023-06-24T11:35:09;8.93;;;6.55;;
58242;SDS011;50118;53.232;8.252;2023-06-24T11:37:36;7.45;;;5.25;;
58242;SDS011;50118;53.232;8.252;2023-06-24T11:42:31;6.35;;;5.07;;
58242;SDS011;50118;53.232;8.252;2023-06-24T11:45:01;7.18;;;5.60;;
58242;SDS011;50118;53.232;8.252;2023-06-24T11:47:31;8.45;;;6.32;;
58242;SDS011;50118;53.232;8.252;2023-06-24T11:49:58;6.10;;;5.13;;
58242;SDS011;50118;53.232;8.252;2023-06-24T11:55:16;6.68;;;4.88;;
58242;SDS011;50118;53.232;8.252;2023-06-24T11:57:58;5.72;;;4.75;;
58242;SDS011;50118;53.232;8.252;2023-06-24T12:00:35;8.07;;;4.90;;
58242;SDS011;50118;53.232;8.252;2023-06-24T12:03:05;6.38;;;4.60;;
58242;SDS011;50118;53.232;8.252;2023-06-24T12:05:32;7.80;;;4.47;;
58242;SDS011;50118;53.232;8.252;2023-06-24T12:08:02;6.40;;;4.28;;
58242;SDS011;50118;53.232;8.252;2023-06-24T12:10:31;5.38;;;3.50;;
58242;SDS011;50118;53.232;8.252;2023-06-24T12:12:58;4.75;;;3.40;;
58242;SDS011;50118;53.232;8.252;2023-06-24T12:15:24;5.55;;;3.45;;
58242;SDS011;50118;53.232;8.252;2023-06-24T12:17:50;5.00;;;3.20;;
58242;SDS011;50118;53.232;8.252;2023-06-24T12:20:16;4.68;;;3.22;;
58242;SDS011;50118;53.232;8.252;2023-06-24T12:22:42;5.93;;;3.97;;
58242;SDS011;50118;53.232;8.252;2023-06-24T12:25:09;5.10;;;4.03;;
58242;SDS011;50118;53.232;8.252;2023-06-24T12:27:34;5.38;;;3.90;;
58242;SDS011;50118;53.232;8.252;2023-06-24T12:30:00;5.95;;;3.85;;
58242;SDS011;50118;53.232;8.252;2023-06-24T12:32:26;4.82;;;3.88;;
58242;SDS011;50118;53.232;8.252;2023-06-24T12:34:52;4.63;;;3.58;;
58242;SDS011;50118;53.232;8.252;2023-06-24T12:37:18;5.63;;;3.35;;
58242;SDS011;50118;53.232;8.252;2023-06-24T12:39:44;5.18;;;3.78;;
58242;SDS011;50118;53.232;8.252;2023-06-24T12:42:10;5.15;;;4.07;;
58242;SDS011;50118;53.232;8.252;2023-06-24T12:44:36;7.07;;;4.50;;
58242;SDS011;50118;53.232;8.252;2023-06-24T12:47:01;5.75;;;4.32;;
58242;SDS011;50118;53.232;8.252;2023-06-24T12:49:27;4.90;;;3.97;;
58242;SDS011;50118;53.232;8.252;2023-06-24T12:51:53;5.05;;;3.70;;
58242;SDS011;50118;53.232;8.252;2023-06-24T12:54:18;4.88;;;4.10;;
58242;SDS011;50118;53.232;8.252;2023-06-24T12:56:44;5.15;;;3.78;;
58242;SDS011;50118;53.232;8.252;2023-06-24T12:59:09;5.65;;;4.78;;
58242;SDS011;50118;53.232;8.252;2023-06-24T13:01:34;4.60;;;3.80;;
58242;SDS011;50118;53.232;8.252;2023-06-24T13:04:00;5.80;;;4.03;;
58242;SDS011;50118;53.232;8.252;2023-06-24T13:06:25;4.78;;;3.92;;
58242;SDS011;50118;53.232;8.252;2023-06-24T13:08:51;6.32;;;4.45;;
58242;SDS011;50118;53.232;8.252;2023-06-24T13:11:16;6.55;;;3.70;;
58242;SDS011;50118;53.232;8.252;2023-06-24T13:13:42;6.60;;;4.07;;
58242;SDS011;50118;53.232;8.252;2023-06-24T13:16:07;5.28;;;3.80;;
58242;SDS011;50118;53.232;8.252;2023-06-24T13:18:33;8.30;;;4.20;;
58242;SDS011;50118;53.232;8.252;2023-06-24T13:20:58;5.05;;;3.75;;
58242;SDS011;50118;53.232;8.252;2023-06-24T13:23:23;4.75;;;3.70;;
58242;SDS011;50118;53.232;8.252;2023-06-24T13:25:49;6.72;;;4.00;;
58242;SDS011;50118;53.232;8.252;2023-06-24T13:28:14;5.75;;;4.15;;
58242;SDS011;50118;53.232;8.252;2023-06-24T13:30:40;4.53;;;3.60;;
58242;SDS011;50118;53.232;8.252;2023-06-24T13:33:05;6.07;;;4.20;;
58242;SDS011;50118;53.232;8.252;2023-06-24T13:35:31;5.18;;;3.90;;
58242;SDS011;50118;53.232;8.252;2023-06-24T13:37:56;4.32;;;3.50;;
58242;SDS011;50118;53.232;8.252;2023-06-24T13:40:23;4.97;;;3.70;;
58242;SDS011;50118;53.232;8.252;2023-06-24T13:42:49;5.00;;;4.03;;
58242;SDS011;50118;53.232;8.252;2023-06-24T13:45:15;4.95;;;3.60;;
58242;SDS011;50118;53.232;8.252;2023-06-24T13:47:40;5.53;;;3.60;;
58242;SDS011;50118;53.232;8.252;2023-06-24T13:50:06;6.53;;;3.85;;
58242;SDS011;50118;53.232;8.252;2023-06-24T13:52:32;4.70;;;3.60;;
58242;SDS011;50118;53.232;8.252;2023-06-24T13:54:57;7.22;;;3.97;;
58242;SDS011;50118;53.232;8.252;2023-06-24T13:57:22;5.95;;;3.92;;
58242;SDS011;50118;53.232;8.252;2023-06-24T13:59:48;5.43;;;3.83;;
58242;SDS011;50118;53.232;8.252;2023-06-24T14:02:13;4.95;;;3.80;;
58242;SDS011;50118;53.232;8.252;2023-06-24T14:04:39;4.85;;;3.88;;
58242;SDS011;50118;53.232;8.252;2023-06-24T14:07:05;5.10;;;3.85;;
58242;SDS011;50118;53.232;8.252;2023-06-24T14:09:31;5.35;;;3.72;;
58242;SDS011;50118;53.232;8.252;2023-06-24T14:11:57;5.55;;;4.10;;
58242;SDS011;50118;53.232;8.252;2023-06-24T14:14:22;5.47;;;4.00;;
58242;SDS011;50118;53.232;8.252;2023-06-24T14:16:48;11.05;;;4.38;;
58242;SDS011;50118;53.232;8.252;2023-06-24T14:19:13;4.68;;;3.60;;
58242;SDS011;50118;53.232;8.252;2023-06-24T14:21:38;11.25;;;5.57;;
58242;SDS011;50118;53.232;8.252;2023-06-24T14:24:04;17.38;;;8.27;;
58242;SDS011;50118;53.232;8.252;2023-06-24T14:26:32;7.72;;;4.88;;
58242;SDS011;50118;53.232;8.252;2023-06-24T14:28:58;10.25;;;5.50;;
58242;SDS011;50118;53.232;8.252;2023-06-24T14:31:23;4.43;;;3.70;;
58242;SDS011;50118;53.232;8.252;2023-06-24T14:33:49;5.53;;;4.07;;
58242;SDS011;50118;53.232;8.252;2023-06-24T14:36:14;6.05;;;4.28;;
58242;SDS011;50118;53.232;8.252;2023-06-24T14:38:40;10.18;;;5.43;;
58242;SDS011;50118;53.232;8.252;2023-06-24T14:41:06;5.55;;;4.00;;
58242;SDS011;50118;53.232;8.252;2023-06-24T14:43:32;9.18;;;4.78;;
58242;SDS011;50118;53.232;8.252;2023-06-24T14:45:58;4.78;;;3.95;;
58242;SDS011;50118;53.232;8.252;2023-06-24T14:48:23;6.20;;;3.92;;
58242;SDS011;50118;53.232;8.252;2023-06-24T14:50:48;4.97;;;3.85;;
58242;SDS011;50118;53.232;8.252;2023-06-24T14:53:14;5.85;;;3.58;;
58242;SDS011;50118;53.232;8.252;2023-06-24T14:55:39;5.35;;;3.80;;
58242;SDS011;50118;53.232;8.252;2023-06-24T14:58:05;11.35;;;5.60;;
58242;SDS011;50118;53.232;8.252;2023-06-24T15:00:30;5.78;;;4.18;;